sensor_id;sensor_type;location;lat;lon;timestamp;pressure;altitude;pressure_sealevel;temperature;humidity
45888;BME280;31595;51.418;7.572;2023-03-21T00:00:42;100395.25;;;12.04;57.46
45888;BME280;31595;51.418;7.572;2023-03-21T00:03:10;100391.63;;;12.03;57.42
45888;BME280;31595;51.418;7.572;2023-03-21T00:05:39;100383.25;;;12.03;57.47
45888;BME280;31595;51.418;7.572;2023-03-21T00:08:06;100383.59;;;12.02;57.39
45888;BME280;31595;51.418;7.572;2023-03-21T00:10:33;100380.97;;;12.05;57.41
45888;BME280;31595;51.418;7.572;2023-03-21T00:13:01;100374.72;;;12.00;57.49
45888;BME280;31595;51.418;7.572;2023-03-21T00:15:28;100380.31;;;12.08;57.27
45888;BME280;31595;51.418;7.572;2023-03-21T00:17:57;100380.81;;;12.02;58.16
45888;BME280;31595;51.418;7.572;2023-03-21T00:20:29;100366.84;;;12.02;57.29
45888;BME280;31595;51.418;7.572;2023-03-21T00:22:56;100367.34;;;12.12;57.25
45888;BME280;31595;51.418;7.572;2023-03-21T00:25:23;100369.47;;;12.15;56.91
45888;BME280;31595;51.418;7.572;2023-03-21T00:27:50;100366.19;;;12.05;57.15
45888;BME280;31595;51.418;7.572;2023-03-21T00:30:18;100362.75;;;12.08;57.34
45888;BME280;31595;51.418;7.572;2023-03-21T00:32:45;100361.28;;;12.19;57.03
45888;BME280;31595;51.418;7.572;2023-03-21T00:35:14;100359.97;;;12.16;57.03
45888;BME280;31595;51.418;7.572;2023-03-21T00:37:41;100355.03;;;12.13;57.16
45888;BME280;31595;51.418;7.572;2023-03-21T00:40:10;100356.34;;;12.16;57.22
45888;BME280;31595;51.418;7.572;2023-03-21T00:42:37;100355.19;;;12.17;57.02
45888;BME280;31595;51.418;7.572;2023-03-21T00:45:06;100351.41;;;12.13;56.93
45888;BME280;31595;51.418;7.572;2023-03-21T00:47:35;100342.88;;;12.18;56.87
45888;BME280;31595;51.418;7.572;2023-03-21T00:50:03;100340.09;;;12.18;57.14
45888;BME280;31595;51.418;7.572;2023-03-21T00:52:32;100341.72;;;12.10;57.03
45888;BME280;31595;51.418;7.572;2023-03-21T00:55:00;100339.25;;;12.09;56.75
45888;BME280;31595;51.418;7.572;2023-03-21T00:57:27;100337.28;;;12.09;57.38
45888;BME280;31595;51.418;7.572;2023-03-21T00:59:54;100330.88;;;12.09;56.65
45888;BME280;31595;51.418;7.572;2023-03-21T01:02:23;100324.00;;;12.15;57.01
45888;BME280;31595;51.418;7.572;2023-03-21T01:04:51;100326.13;;;12.18;57.17
45888;BME280;31595;51.418;7.572;2023-03-21T01:07:19;100319.69;;;12.26;56.91
45888;BME280;31595;51.418;7.572;2023-03-21T01:09:47;100321.38;;;12.01;57.21
45888;BME280;31595;51.418;7.572;2023-03-21T01:12:15;100323.84;;;12.20;56.69
45888;BME280;31595;51.418;7.572;2023-03-21T01:14:43;100325.47;;;12.21;57.18
45888;BME280;31595;51.418;7.572;2023-03-21T01:17:10;100320.19;;;12.19;57.37
45888;BME280;31595;51.418;7.572;2023-03-21T01:19:37;100309.88;;;12.29;56.85
45888;BME280;31595;51.418;7.572;2023-03-21T01:22:05;100325.63;;;12.25;56.88
45888;BME280;31595;51.418;7.572;2023-03-21T01:24:32;100314.13;;;12.17;57.21
45888;BME280;31595;51.418;7.572;2023-03-21T01:27:02;100313.16;;;12.22;56.93
45888;BME280;31595;51.418;7.572;2023-03-21T01:29:29;100320.53;;;12.27;57.26
45888;BME280;31595;51.418;7.572;2023-03-21T01:31:56;100309.88;;;12.29;56.35
45888;BME280;31595;51.418;7.572;2023-03-21T01:34:23;100307.25;;;12.06;57.06
45888;BME280;31595;51.418;7.572;2023-03-21T01:36:51;100310.69;;;12.21;57.00
45888;BME280;31595;51.418;7.572;2023-03-21T01:39:18;100300.50;;;12.16;57.07
45888;BME280;31595;51.418;7.572;2023-03-21T01:41:45;100298.69;;;12.29;56.64
45888;BME280;31595;51.418;7.572;2023-03-21T01:44:16;100304.41;;;12.32;56.44
45888;BME280;31595;51.418;7.572;2023-03-21T01:46:44;100296.03;;;12.32;56.75
45888;BME280;31595;51.418;7.572;2023-03-21T01:49:16;100299.00;;;12.36;56.76
45888;BME280;31595;51.418;7.572;2023-03-21T01:51:46;100294.22;;;12.36;56.86
45888;BME280;31595;51.418;7.572;2023-03-21T01:54:19;100296.69;;;12.38;56.79
45888;BME280;31595;51.418;7.572;2023-03-21T01:56:50;100299.00;;;12.36;56.33
45888;BME280;31595;51.418;7.572;2023-03-21T01:59:24;100290.78;;;12.39;56.70
45888;BME280;31595;51.418;7.572;2023-03-21T02:01:55;100290.13;;;12.34;56.78
45888;BME280;31595;51.418;7.572;2023-03-21T02:04:26;100287.19;;;12.39;56.24
45888;BME280;31595;51.418;7.572;2023-03-21T02:06:58;100282.56;;;12.34;56.96
45888;BME280;31595;51.418;7.572;2023-03-21T02:09:31;100286.34;;;12.30;56.93
45888;BME280;31595;51.418;7.572;2023-03-21T02:11:59;100293.41;;;12.36;56.78
45888;BME280;31595;51.418;7.572;2023-03-21T02:14:29;100282.59;;;12.26;56.34
45888;BME280;31595;51.418;7.572;2023-03-21T02:17:06;100276.84;;;12.31;56.18
45888;BME280;31595;51.418;7.572;2023-03-21T02:20:04;100274.38;;;12.21;56.59
45888;BME280;31595;51.418;7.572;2023-03-21T02:22:50;100268.13;;;12.15;56.61
45888;BME280;31595;51.418;7.572;2023-03-21T02:25:45;100268.31;;;12.18;56.95
45888;BME280;31595;51.418;7.572;2023-03-21T02:28:26;100271.09;;;12.18;56.66
45888;BME280;31595;51.418;7.572;2023-03-21T02:31:09;100260.28;;;12.08;56.57
45888;BME280;31595;51.418;7.572;2023-03-21T02:36:58;100256.31;;;12.09;57.06
45888;BME280;31595;51.418;7.572;2023-03-21T02:39:30;100257.97;;;12.10;57.46
45888;BME280;31595;51.418;7.572;2023-03-21T02:42:03;100254.84;;;12.03;57.44
45888;BME280;31595;51.418;7.572;2023-03-21T02:44:40;100257.28;;;12.13;57.22
45888;BME280;31595;51.418;7.572;2023-03-21T02:47:12;100259.97;;;12.01;57.13
45888;BME280;31595;51.418;7.572;2023-03-21T02:49:43;100259.47;;;12.08;57.86
45888;BME280;31595;51.418;7.572;2023-03-21T02:52:17;100259.78;;;12.06;57.43
45888;BME280;31595;51.418;7.572;2023-03-21T02:54:47;100261.44;;;12.16;57.43
45888;BME280;31595;51.418;7.572;2023-03-21T02:57:17;100262.41;;;12.20;57.58
45888;BME280;31595;51.418;7.572;2023-03-21T02:59:46;100256.97;;;12.24;57.48
45888;BME280;31595;51.418;7.572;2023-03-21T03:02:15;100261.41;;;12.25;57.22
45888;BME280;31595;51.418;7.572;2023-03-21T03:04:45;100263.53;;;12.28;57.64
45888;BME280;31595;51.418;7.572;2023-03-21T03:07:20;100254.34;;;12.27;57.72
45888;BME280;31595;51.418;7.572;2023-03-21T03:10:02;100262.53;;;12.32;57.18
45888;BME280;31595;51.418;7.572;2023-03-21T03:12:40;100256.63;;;12.34;57.26
45888;BME280;31595;51.418;7.572;2023-03-21T03:15:19;100248.88;;;12.39;57.17
45888;BME280;31595;51.418;7.572;2023-03-21T03:17:58;100250.38;;;12.37;57.21
45888;BME280;31595;51.418;7.572;2023-03-21T03:20:34;100252.81;;;12.38;57.19
45888;BME280;31595;51.418;7.572;2023-03-21T03:23:15;100248.72;;;12.36;56.61
45888;BME280;31595;51.418;7.572;2023-03-21T03:25:48;100246.25;;;12.34;57.06
45888;BME280;31595;51.418;7.572;2023-03-21T03:28:22;100237.06;;;12.34;57.25
45888;BME280;31595;51.418;7.572;2023-03-21T03:30:51;100247.59;;;12.28;57.46
45888;BME280;31595;51.418;7.572;2023-03-21T03:33:20;100246.44;;;12.29;57.52
45888;BME280;31595;51.418;7.572;2023-03-21T03:35:49;100244.78;;;12.37;57.70
45888;BME280;31595;51.418;7.572;2023-03-21T03:38:19;100247.72;;;12.41;57.52
45888;BME280;31595;51.418;7.572;2023-03-21T03:40:49;100244.41;;;12.47;57.08
45888;BME280;31595;51.418;7.572;2023-03-21T03:43:21;100244.47;;;12.30;58.14
45888;BME280;31595;51.418;7.572;2023-03-21T03:45:55;100241.69;;;12.21;58.51
45888;BME280;31595;51.418;7.572;2023-03-21T03:48:25;100252.41;;;11.93;59.65
45888;BME280;31595;51.418;7.572;2023-03-21T03:50:57;100237.63;;;12.01;59.53
45888;BME280;31595;51.418;7.572;2023-03-21T03:53:34;100235.28;;;12.03;59.81
45888;BME280;31595;51.418;7.572;2023-03-21T03:56:04;100229.06;;;12.06;59.79
45888;BME280;31595;51.418;7.572;2023-03-21T03:58:34;100227.59;;;12.09;60.08
45888;BME280;31595;51.418;7.572;2023-03-21T04:01:05;100217.91;;;12.06;59.57
45888;BME280;31595;51.418;7.572;2023-03-21T04:03:35;100225.28;;;12.02;59.60
45888;BME280;31595;51.418;7.572;2023-03-21T04:06:03;100227.09;;;11.98;59.70
45888;BME280;31595;51.418;7.572;2023-03-21T04:08:32;100219.91;;;11.97;59.61
45888;BME280;31595;51.418;7.572;2023-03-21T04:11:00;100219.22;;;12.00;59.62
45888;BME280;31595;51.418;7.572;2023-03-21T04:13:28;100211.19;;;11.90;59.59
45888;BME280;31595;51.418;7.572;2023-03-21T04:15:55;100205.59;;;11.81;59.77
45888;BME280;31595;51.418;7.572;2023-03-21T04:18:22;100206.41;;;11.82;59.78
45888;BME280;31595;51.418;7.572;2023-03-21T04:20:49;100200.50;;;11.83;59.83
45888;BME280;31595;51.418;7.572;2023-03-21T04:23:17;100203.78;;;11.85;59.53
45888;BME280;31595;51.418;7.572;2023-03-21T04:25:46;100207.59;;;11.89;59.58
45888;BME280;31595;51.418;7.572;2023-03-21T04:28:15;100205.28;;;11.91;59.43
45888;BME280;31595;51.418;7.572;2023-03-21T04:30:42;100197.72;;;11.83;59.55
45888;BME280;31595;51.418;7.572;2023-03-21T04:33:10;100211.50;;;11.79;59.93
45888;BME280;31595;51.418;7.572;2023-03-21T04:35:37;100210.34;;;11.81;59.59
45888;BME280;31595;51.418;7.572;2023-03-21T04:38:07;100205.25;;;11.83;59.69
45888;BME280;31595;51.418;7.572;2023-03-21T04:40:34;100201.50;;;11.78;59.58
45888;BME280;31595;51.418;7.572;2023-03-21T04:43:03;100203.13;;;11.79;59.36
45888;BME280;31595;51.418;7.572;2023-03-21T04:45:30;100197.72;;;11.74;59.28
45888;BME280;31595;51.418;7.572;2023-03-21T04:47:57;100201.81;;;11.77;59.66
45888;BME280;31595;51.418;7.572;2023-03-21T04:50:25;100191.47;;;11.69;59.74
45888;BME280;31595;51.418;7.572;2023-03-21T04:52:52;100194.94;;;11.74;59.79
45888;BME280;31595;51.418;7.572;2023-03-21T04:55:19;100188.03;;;11.81;59.51
45888;BME280;31595;51.418;7.572;2023-03-21T04:57:47;100185.06;;;11.86;59.56
45888;BME280;31595;51.418;7.572;2023-03-21T05:00:16;100183.44;;;11.85;59.23
45888;BME280;31595;51.418;7.572;2023-03-21T05:02:43;100181.94;;;11.87;59.32
45888;BME280;31595;51.418;7.572;2023-03-21T05:05:11;100181.28;;;11.90;59.32
45888;BME280;31595;51.418;7.572;2023-03-21T05:07:39;100180.81;;;11.97;58.87
45888;BME280;31595;51.418;7.572;2023-03-21T05:10:10;100189.69;;;11.99;59.25
45888;BME280;31595;51.418;7.572;2023-03-21T05:12:38;100179.47;;;12.03;59.12
45888;BME280;31595;51.418;7.572;2023-03-21T05:15:06;100182.75;;;12.05;59.11
45888;BME280;31595;51.418;7.572;2023-03-21T05:17:35;100184.09;;;12.08;58.56
45888;BME280;31595;51.418;7.572;2023-03-21T05:20:03;100178.66;;;12.03;58.34
45888;BME280;31595;51.418;7.572;2023-03-21T05:22:34;100181.91;;;12.13;58.65
45888;BME280;31595;51.418;7.572;2023-03-21T05:25:06;100177.31;;;12.17;58.24
45888;BME280;31595;51.418;7.572;2023-03-21T05:27:34;100177.66;;;12.16;57.78
45888;BME280;31595;51.418;7.572;2023-03-21T05:30:06;100171.91;;;12.12;57.80
45888;BME280;31595;51.418;7.572;2023-03-21T05:32:35;100176.50;;;12.08;57.60
45888;BME280;31595;51.418;7.572;2023-03-21T05:35:03;100178.81;;;12.06;57.91
45888;BME280;31595;51.418;7.572;2023-03-21T05:37:31;100178.81;;;12.06;57.90
45888;BME280;31595;51.418;7.572;2023-03-21T05:39:58;100180.44;;;12.07;58.07
45888;BME280;31595;51.418;7.572;2023-03-21T05:42:25;100174.22;;;12.10;57.80
45888;BME280;31595;51.418;7.572;2023-03-21T05:44:53;100172.72;;;12.13;57.69
45888;BME280;31595;51.418;7.572;2023-03-21T05:47:20;100174.53;;;12.09;57.69
45888;BME280;31595;51.418;7.572;2023-03-21T05:49:49;100181.78;;;12.10;57.71
45888;BME280;31595;51.418;7.572;2023-03-21T05:52:16;100180.78;;;12.14;57.28
45888;BME280;31595;51.418;7.572;2023-03-21T05:54:44;100192.91;;;12.18;57.18
45888;BME280;31595;51.418;7.572;2023-03-21T05:57:11;100186.00;;;12.25;57.54
45888;BME280;31595;51.418;7.572;2023-03-21T05:59:38;100187.47;;;12.31;57.34
45888;BME280;31595;51.418;7.572;2023-03-21T06:02:06;100184.81;;;12.43;57.14
45888;BME280;31595;51.418;7.572;2023-03-21T06:04:33;100183.44;;;12.49;56.93
45888;BME280;31595;51.418;7.572;2023-03-21T06:07:02;100190.97;;;12.57;56.86
45888;BME280;31595;51.418;7.572;2023-03-21T06:09:30;100186.22;;;12.58;57.83
45888;BME280;31595;51.418;7.572;2023-03-21T06:11:58;100191.91;;;12.70;57.40
45888;BME280;31595;51.418;7.572;2023-03-21T06:14:26;100188.66;;;12.68;56.61
45888;BME280;31595;51.418;7.572;2023-03-21T06:16:53;100180.28;;;12.68;56.80
45888;BME280;31595;51.418;7.572;2023-03-21T06:19:21;100183.34;;;12.75;56.02
45888;BME280;31595;51.418;7.572;2023-03-21T06:21:48;100185.38;;;12.66;56.47
45888;BME280;31595;51.418;7.572;2023-03-21T06:24:17;100187.00;;;12.67;56.55
45888;BME280;31595;51.418;7.572;2023-03-21T06:26:45;100180.72;;;12.79;56.35
45888;BME280;31595;51.418;7.572;2023-03-21T06:29:13;100187.75;;;12.76;56.48
45888;BME280;31595;51.418;7.572;2023-03-21T06:31:40;100184.00;;;12.81;56.02
45888;BME280;31595;51.418;7.572;2023-03-21T06:34:07;100191.97;;;12.91;55.65
45888;BME280;31595;51.418;7.572;2023-03-21T06:36:36;100188.03;;;12.92;56.04
45888;BME280;31595;51.418;7.572;2023-03-21T06:39:04;100179.44;;;12.97;55.49
45888;BME280;31595;51.418;7.572;2023-03-21T06:41:33;100176.16;;;12.95;55.50
45888;BME280;31595;51.418;7.572;2023-03-21T06:44:01;100175.50;;;12.98;56.40
45888;BME280;31595;51.418;7.572;2023-03-21T06:46:28;100181.03;;;12.77;55.96
45888;BME280;31595;51.418;7.572;2023-03-21T06:48:55;100179.84;;;12.87;55.90
45888;BME280;31595;51.418;7.572;2023-03-21T06:51:23;100178.28;;;12.69;56.77
45888;BME280;31595;51.418;7.572;2023-03-21T06:53:50;100180.72;;;12.79;56.92
45888;BME280;31595;51.418;7.572;2023-03-21T06:56:17;100186.47;;;12.74;57.40
45888;BME280;31595;51.418;7.572;2023-03-21T06:58:46;100182.72;;;12.70;57.97
45888;BME280;31595;51.418;7.572;2023-03-21T07:01:13;100178.72;;;12.79;58.49
45888;BME280;31595;51.418;7.572;2023-03-21T07:03:40;100188.41;;;12.82;58.36
45888;BME280;31595;51.418;7.572;2023-03-21T07:06:10;100173.09;;;12.88;57.97
45888;BME280;31595;51.418;7.572;2023-03-21T07:08:39;100178.19;;;12.86;57.99
45888;BME280;31595;51.418;7.572;2023-03-21T07:11:07;100182.81;;;12.82;58.80
45888;BME280;31595;51.418;7.572;2023-03-21T07:13:34;100182.97;;;12.86;58.41
45888;BME280;31595;51.418;7.572;2023-03-21T07:16:03;100181.25;;;12.64;59.41
45888;BME280;31595;51.418;7.572;2023-03-21T07:18:31;100190.22;;;12.78;59.37
45888;BME280;31595;51.418;7.572;2023-03-21T07:20:58;100189.31;;;12.65;59.92
45888;BME280;31595;51.418;7.572;2023-03-21T07:23:26;100196.09;;;12.47;61.40
45888;BME280;31595;51.418;7.572;2023-03-21T07:25:53;100193.63;;;12.54;62.21
45888;BME280;31595;51.418;7.572;2023-03-21T07:28:21;100198.44;;;12.36;61.92
45888;BME280;31595;51.418;7.572;2023-03-21T07:30:52;100189.97;;;12.06;63.15
45888;BME280;31595;51.418;7.572;2023-03-21T07:33:21;100187.03;;;12.03;63.79
45888;BME280;31595;51.418;7.572;2023-03-21T07:35:49;100192.47;;;12.08;63.13
45888;BME280;31595;51.418;7.572;2023-03-21T07:38:17;100194.94;;;11.92;63.95
45888;BME280;31595;51.418;7.572;2023-03-21T07:40:45;100188.69;;;11.95;64.86
45888;BME280;31595;51.418;7.572;2023-03-21T07:43:13;100184.44;;;11.80;65.54
45888;BME280;31595;51.418;7.572;2023-03-21T07:45:41;100186.06;;;11.72;66.70
45888;BME280;31595;51.418;7.572;2023-03-21T07:48:08;100192.28;;;11.69;67.36
45888;BME280;31595;51.418;7.572;2023-03-21T07:50:39;100193.78;;;11.49;67.43
45888;BME280;31595;51.418;7.572;2023-03-21T07:53:06;100190.31;;;11.61;67.72
45888;BME280;31595;51.418;7.572;2023-03-21T07:55:34;100192.97;;;11.66;67.78
45888;BME280;31595;51.418;7.572;2023-03-21T07:58:01;100186.22;;;11.67;67.19
45888;BME280;31595;51.418;7.572;2023-03-21T08:00:29;100210.69;;;11.70;67.34
45888;BME280;31595;51.418;7.572;2023-03-21T08:02:57;100195.44;;;11.59;67.25
45888;BME280;31595;51.418;7.572;2023-03-21T08:05:26;100201.81;;;11.68;67.22
45888;BME280;31595;51.418;7.572;2023-03-21T08:07:55;100195.72;;;11.84;67.46
45888;BME280;31595;51.418;7.572;2023-03-21T08:10:23;100209.22;;;11.99;66.83
45888;BME280;31595;51.418;7.572;2023-03-21T08:12:51;100205.25;;;12.09;66.79
45888;BME280;31595;51.418;7.572;2023-03-21T08:15:18;100212.94;;;12.29;66.21
45888;BME280;31595;51.418;7.572;2023-03-21T08:17:46;100218.31;;;12.34;65.94
45888;BME280;31595;51.418;7.572;2023-03-21T08:20:15;100214.25;;;12.23;66.82
45888;BME280;31595;51.418;7.572;2023-03-21T08:22:43;100207.31;;;12.38;66.90
45888;BME280;31595;51.418;7.572;2023-03-21T08:25:12;100206.63;;;12.50;65.80
45888;BME280;31595;51.418;7.572;2023-03-21T08:27:40;100221.56;;;12.54;65.56
45888;BME280;31595;51.418;7.572;2023-03-21T08:30:09;100217.56;;;12.64;65.94
45888;BME280;31595;51.418;7.572;2023-03-21T08:32:37;100218.75;;;12.63;65.45
45888;BME280;31595;51.418;7.572;2023-03-21T08:35:06;100216.19;;;12.78;65.51
45888;BME280;31595;51.418;7.572;2023-03-21T08:37:35;100214.84;;;12.85;66.13
45888;BME280;31595;51.418;7.572;2023-03-21T08:40:02;100220.44;;;12.85;66.62
45888;BME280;31595;51.418;7.572;2023-03-21T08:42:34;100213.88;;;12.80;65.71
45888;BME280;31595;51.418;7.572;2023-03-21T08:45:01;100213.38;;;12.87;65.92
45888;BME280;31595;51.418;7.572;2023-03-21T08:47:29;100211.44;;;12.79;66.44
45888;BME280;31595;51.418;7.572;2023-03-21T08:49:57;100207.38;;;12.97;66.15
45888;BME280;31595;51.418;7.572;2023-03-21T08:52:24;100212.13;;;13.06;66.04
45888;BME280;31595;51.418;7.572;2023-03-21T08:54:52;100199.94;;;13.10;65.14
45888;BME280;31595;51.418;7.572;2023-03-21T08:57:19;100197.66;;;13.04;65.05
45888;BME280;31595;51.418;7.572;2023-03-21T08:59:48;100186.81;;;13.02;65.87
45888;BME280;31595;51.418;7.572;2023-03-21T09:02:16;100196.75;;;12.91;65.90
45888;BME280;31595;51.418;7.572;2023-03-21T09:04:44;100194.25;;;12.98;65.28
45888;BME280;31595;51.418;7.572;2023-03-21T09:07:12;100186.84;;;12.93;65.29
45888;BME280;31595;51.418;7.572;2023-03-21T09:09:42;100182.88;;;13.03;66.73
45888;BME280;31595;51.418;7.572;2023-03-21T09:12:09;100191.88;;;13.09;65.32
45888;BME280;31595;51.418;7.572;2023-03-21T09:14:36;100189.38;;;12.86;66.56
45888;BME280;31595;51.418;7.572;2023-03-21T09:17:05;100192.06;;;13.04;67.49
45888;BME280;31595;51.418;7.572;2023-03-21T09:19:32;100191.72;;;12.75;67.04
45888;BME280;31595;51.418;7.572;2023-03-21T09:21:59;100197.50;;;12.70;68.61
45888;BME280;31595;51.418;7.572;2023-03-21T09:24:27;100195.59;;;12.62;69.06
45888;BME280;31595;51.418;7.572;2023-03-21T09:26:54;100196.88;;;12.65;69.58
45888;BME280;31595;51.418;7.572;2023-03-21T09:29:22;100194.56;;;12.67;68.87
45888;BME280;31595;51.418;7.572;2023-03-21T09:31:49;100192.53;;;12.76;69.42
45888;BME280;31595;51.418;7.572;2023-03-21T09:34:20;100188.94;;;12.75;67.92
45888;BME280;31595;51.418;7.572;2023-03-21T09:36:47;100194.31;;;12.89;68.56
45888;BME280;31595;51.418;7.572;2023-03-21T09:39:17;100191.31;;;12.94;67.58
45888;BME280;31595;51.418;7.572;2023-03-21T09:44:54;100185.72;;;12.94;67.18
45888;BME280;31595;51.418;7.572;2023-03-21T09:47:27;100193.28;;;12.94;68.33
45888;BME280;31595;51.418;7.572;2023-03-21T09:50:03;100186.63;;;13.07;68.47
45888;BME280;31595;51.418;7.572;2023-03-21T09:52:45;100187.16;;;13.00;68.36
45888;BME280;31595;51.418;7.572;2023-03-21T09:55:16;100193.13;;;13.20;68.40
45888;BME280;31595;51.418;7.572;2023-03-21T09:57:46;100188.66;;;12.98;68.79
45888;BME280;31595;51.418;7.572;2023-03-21T10:00:20;100186.25;;;12.88;70.97
45888;BME280;31595;51.418;7.572;2023-03-21T10:02:53;100184.22;;;12.97;71.19
45888;BME280;31595;51.418;7.572;2023-03-21T10:05:27;100186.38;;;12.91;70.00
45888;BME280;31595;51.418;7.572;2023-03-21T10:07:58;100185.28;;;12.84;71.16
45888;BME280;31595;51.418;7.572;2023-03-21T10:10:33;100182.16;;;12.85;70.28
45888;BME280;31595;51.418;7.572;2023-03-21T10:13:04;100178.25;;;12.77;70.50
45888;BME280;31595;51.418;7.572;2023-03-21T10:15:36;100172.66;;;12.77;70.45
45888;BME280;31595;51.418;7.572;2023-03-21T10:18:05;100172.59;;;12.86;70.04
45888;BME280;31595;51.418;7.572;2023-03-21T10:20:35;100168.47;;;12.92;69.12
45888;BME280;31595;51.418;7.572;2023-03-21T10:23:05;100177.06;;;12.87;68.78
45888;BME280;31595;51.418;7.572;2023-03-21T10:25:35;100181.25;;;12.93;68.60
45888;BME280;31595;51.418;7.572;2023-03-21T10:28:05;100170.38;;;13.00;69.55
45888;BME280;31595;51.418;7.572;2023-03-21T10:30:37;100170.78;;;12.90;69.28
45888;BME280;31595;51.418;7.572;2023-03-21T10:33:07;100163.91;;;13.09;69.49
45888;BME280;31595;51.418;7.572;2023-03-21T10:35:40;100166.91;;;13.04;68.49
45888;BME280;31595;51.418;7.572;2023-03-21T10:38:14;100165.97;;;13.20;68.66
45888;BME280;31595;51.418;7.572;2023-03-21T10:40:42;100165.13;;;13.29;68.19
45888;BME280;31595;51.418;7.572;2023-03-21T10:43:18;100164.97;;;13.25;66.42
45888;BME280;31595;51.418;7.572;2023-03-21T10:45:47;100154.28;;;13.18;65.98
45888;BME280;31595;51.418;7.572;2023-03-21T10:48:15;100167.75;;;13.04;67.08
45888;BME280;31595;51.418;7.572;2023-03-21T10:50:46;100152.97;;;12.95;66.41
45888;BME280;31595;51.418;7.572;2023-03-21T10:53:18;100155.88;;;13.07;66.75
45888;BME280;31595;51.418;7.572;2023-03-21T10:55:47;100138.81;;;13.00;66.79
45888;BME280;31595;51.418;7.572;2023-03-21T10:58:20;100156.19;;;13.06;65.23
45888;BME280;31595;51.418;7.572;2023-03-21T11:00:55;100140.47;;;13.22;65.48
45888;BME280;31595;51.418;7.572;2023-03-21T11:03:26;100120.75;;;13.39;65.66
45888;BME280;31595;51.418;7.572;2023-03-21T11:06:02;100123.94;;;13.38;65.19
45888;BME280;31595;51.418;7.572;2023-03-21T11:08:36;100123.16;;;13.50;64.65
45888;BME280;31595;51.418;7.572;2023-03-21T11:11:05;100126.09;;;13.87;64.81
45888;BME280;31595;51.418;7.572;2023-03-21T11:13:38;100119.63;;;14.07;64.14
45888;BME280;31595;51.418;7.572;2023-03-21T11:16:08;100112.44;;;14.43;63.95
45888;BME280;31595;51.418;7.572;2023-03-21T11:18:41;100114.88;;;14.45;63.84
45888;BME280;31595;51.418;7.572;2023-03-21T11:21:11;100116.84;;;14.19;62.74
45888;BME280;31595;51.418;7.572;2023-03-21T11:23:41;100114.53;;;14.21;62.98
45888;BME280;31595;51.418;7.572;2023-03-21T11:26:18;100099.91;;;14.16;63.81
45888;BME280;31595;51.418;7.572;2023-03-21T11:28:49;100103.31;;;14.21;62.29
45888;BME280;31595;51.418;7.572;2023-03-21T11:31:17;100095.63;;;14.31;62.37
45888;BME280;31595;51.418;7.572;2023-03-21T11:33:50;100098.78;;;14.54;61.75
45888;BME280;31595;51.418;7.572;2023-03-21T11:36:31;100077.38;;;14.86;61.66
45888;BME280;31595;51.418;7.572;2023-03-21T11:39:12;100094.13;;;15.35;59.01
45888;BME280;31595;51.418;7.572;2023-03-21T11:41:41;100078.19;;;15.39;58.14
45888;BME280;31595;51.418;7.572;2023-03-21T11:44:27;100071.16;;;15.46;58.96
45888;BME280;31595;51.418;7.572;2023-03-21T11:46:55;100063.94;;;15.60;58.14
45888;BME280;31595;51.418;7.572;2023-03-21T11:49:23;100067.47;;;15.29;57.94
45888;BME280;31595;51.418;7.572;2023-03-21T11:52:01;100066.56;;;15.81;57.32
45888;BME280;31595;51.418;7.572;2023-03-21T11:54:39;100064.13;;;16.12;56.73
45888;BME280;31595;51.418;7.572;2023-03-21T11:57:19;100061.03;;;16.01;55.88
45888;BME280;31595;51.418;7.572;2023-03-21T11:59:56;100049.38;;;16.15;56.17
45888;BME280;31595;51.418;7.572;2023-03-21T12:02:49;100056.03;;;15.78;56.93
45888;BME280;31595;51.418;7.572;2023-03-21T12:05:24;100047.88;;;15.73;56.38
45888;BME280;31595;51.418;7.572;2023-03-21T12:07:57;100061.38;;;15.55;56.55
45888;BME280;31595;51.418;7.572;2023-03-21T12:10:36;100049.56;;;15.34;56.47
45888;BME280;31595;51.418;7.572;2023-03-21T12:13:17;100053.13;;;15.47;56.54
45888;BME280;31595;51.418;7.572;2023-03-21T12:15:55;100039.72;;;15.40;57.30
45888;BME280;31595;51.418;7.572;2023-03-21T12:18:56;100039.81;;;15.43;56.93
45888;BME280;31595;51.418;7.572;2023-03-21T12:21:30;100052.97;;;15.55;56.71
45888;BME280;31595;51.418;7.572;2023-03-21T12:24:05;100035.13;;;15.48;55.68
45888;BME280;31595;51.418;7.572;2023-03-21T12:26:39;100036.50;;;15.70;56.29
45888;BME280;31595;51.418;7.572;2023-03-21T12:29:21;100033.66;;;15.82;54.98
45888;BME280;31595;51.418;7.572;2023-03-21T12:32:00;100020.72;;;15.77;55.06
45888;BME280;31595;51.418;7.572;2023-03-21T12:34:54;100021.38;;;15.58;55.44
45888;BME280;31595;51.418;7.572;2023-03-21T12:37:30;100011.13;;;15.22;55.30
45888;BME280;31595;51.418;7.572;2023-03-21T12:40:08;100014.44;;;15.12;55.90
45888;BME280;31595;51.418;7.572;2023-03-21T12:42:48;100023.84;;;15.04;56.65
45888;BME280;31595;51.418;7.572;2023-03-21T12:45:23;100019.59;;;15.10;55.71
45888;BME280;31595;51.418;7.572;2023-03-21T12:47:59;100019.03;;;15.04;56.11
45888;BME280;31595;51.418;7.572;2023-03-21T12:50:30;100011.31;;;15.01;56.04
45888;BME280;31595;51.418;7.572;2023-03-21T12:53:25;100017.50;;;15.07;55.95
45888;BME280;31595;51.418;7.572;2023-03-21T12:56:01;100027.56;;;15.08;54.63
45888;BME280;31595;51.418;7.572;2023-03-21T12:58:39;100032.63;;;14.90;53.89
45888;BME280;31595;51.418;7.572;2023-03-21T13:01:09;100021.22;;;14.82;55.33
45888;BME280;31595;51.418;7.572;2023-03-21T13:03:40;100026.44;;;14.84;54.54
45888;BME280;31595;51.418;7.572;2023-03-21T13:06:09;100020.63;;;14.89;55.19
45888;BME280;31595;51.418;7.572;2023-03-21T13:08:42;100015.25;;;14.72;54.87
45888;BME280;31595;51.418;7.572;2023-03-21T13:11:16;100009.66;;;14.72;54.94
45888;BME280;31595;51.418;7.572;2023-03-21T13:13:48;100019.47;;;14.66;55.63